MSC Susanna — 3ECU4 — position and weather

sailwx.info

Track history (hours):
 
Tides and Currents Weather Stations Pressure Air Temp Water Temp Dewpoint Dewpoint Depression Visibility Wind Speed Wind Dir Waves Ship Positions

MSC Susanna

Last reported at 2017-Mar-17 14:28 UTC. Time now 2017-Mar-24 17:50 UTC.
Position N 30°28' E 122°40'.

Length 337 m; draft 13.6 m.

Type: Ship (hazmat cat A). MMSI: 371466000.

Date/timePositionNaut miles runAvg speedWind from/ knotsBaromVisibWave heightAir tempDewpointWater temp
2017-Mar-17 14:28N 30°28' E 122°40'0 0.2
2017-Mar-17 13:28N 30°28' E 122°40'0 0.2
2017-Mar-17 12:31N 30°28' E 122°40'5 0.4
2017-Mar-17 01:11N 30°30' E 122°45'  
2017-Mar-13 20:27N 38°01' E 122°22'1011.5
2017-Mar-13 19:33N 38°05' E 122°10'1311.3
2017-Mar-13 18:24N 38°09' E 121°55'911.0
2017-Mar-13 17:33N 38°12' E 121°43'1110.7
2017-Mar-13 16:32N 38°17' E 121°31'1210.6
2017-Mar-13 15:24N 38°23' E 121°18'910.8
2017-Mar-13 14:33N 38°27' E 121°07'1111.3
2017-Mar-13 13:33N 38°32' E 120°55'1211.7
2017-Mar-13 12:33N 38°35' E 120°40'  
2017-Mar-10 17:13N 38°38' E 120°35'6 8.5
2017-Mar-10 16:33N 38°37' E 120°42'9 9.2
2017-Mar-10 15:33N 38°37' E 120°53'10 9.7
2017-Mar-10 14:33N 38°32' E 121°04'1010.0
2017-Mar-10 13:32N 38°28' E 121°16'12 9.8
2017-Mar-10 12:18N 38°23' E 121°30'8 9.5
2017-Mar-10 11:30N 38°20' E 121°39'  
Track history (hours):
 
Tides and Currents Weather Stations Pressure Air Temp Water Temp Dewpoint Dewpoint Depression Visibility Wind Speed Wind Dir Waves Ship Positions

MSC Susanna

Last reported at 2017-Mar-17 14:28 UTC. Time now 2017-Mar-24 17:50 UTC.
Position N 30°28' E 122°40'.

Length 337 m; draft 13.6 m.

Type: Ship (hazmat cat A). MMSI: 371466000.

Date/timePositionNaut miles runAvg speedWind from/ knotsBaromVisibWave heightAir tempDewpointWater temp
2017-Mar-17 14:28N 30°28' E 122°40'0 0.2
2017-Mar-17 13:28N 30°28' E 122°40'0 0.2
2017-Mar-17 12:31N 30°28' E 122°40'5 0.4
2017-Mar-17 01:11N 30°30' E 122°45'  
2017-Mar-13 20:27N 38°01' E 122°22'1011.5
2017-Mar-13 19:33N 38°05' E 122°10'1311.3
2017-Mar-13 18:24N 38°09' E 121°55'911.0
2017-Mar-13 17:33N 38°12' E 121°43'1110.7
2017-Mar-13 16:32N 38°17' E 121°31'1210.6
2017-Mar-13 15:24N 38°23' E 121°18'910.8
2017-Mar-13 14:33N 38°27' E 121°07'1111.3
2017-Mar-13 13:33N 38°32' E 120°55'1211.7
2017-Mar-13 12:33N 38°35' E 120°40'  
2017-Mar-10 17:13N 38°38' E 120°35'6 8.5
2017-Mar-10 16:33N 38°37' E 120°42'9 9.2
2017-Mar-10 15:33N 38°37' E 120°53'10 9.7
2017-Mar-10 14:33N 38°32' E 121°04'1010.0
2017-Mar-10 13:32N 38°28' E 121°16'12 9.8
2017-Mar-10 12:18N 38°23' E 121°30'8 9.5
2017-Mar-10 11:30N 38°20' E 121°39'  

Dump ship's entire track history